Terminal Aerodrome Forecast
Issued by NWS

Home | Current Version | Previous Version | Text Only | Print | Product List | Glossary On
Versions: 1 2 3 4 5 6 7 8 9 10 11 12 13 14 15 16 17 18
828
FTUS43 KIWX 052326
TAFSBN
TAF
KSBN 052326Z 0600/0624 29008KT P6SM SCT015 BKN040
      TEMPO 0600/0601 BKN015
     FM060200 26006KT P6SM BKN040
     FM060500 22007KT P6SM BKN050 OVC100
     FM061600 24012KT P6SM SCT050=

USA.gov is the U.S. government's official web portal to all federal, state and local government web resources and services.